createdAt,value
2019-05-22T00:01:57.124Z,18.42
2019-05-22T00:04:31.861Z,18.27
2019-05-22T00:07:05.666Z,19.07
2019-05-22T00:09:37.941Z,18.75
2019-05-22T00:12:09.526Z,18.15
2019-05-22T00:14:43.613Z,16.93
2019-05-22T00:17:14.005Z,16.80
2019-05-22T00:19:45.089Z,21.50
2019-05-22T00:22:20.320Z,16.23
2019-05-22T00:24:57.454Z,21.37
2019-05-22T00:27:35.056Z,20.30
2019-05-22T00:30:09.711Z,20.95
2019-05-22T00:32:42.975Z,19.90
2019-05-22T00:35:17.820Z,21.55
2019-05-22T00:37:48.482Z,15.88
2019-05-22T00:40:20.666Z,19.60
2019-05-22T00:43:03.418Z,21.00
2019-05-22T00:45:22.754Z,17.45
2019-05-22T00:47:51.864Z,18.90
2019-05-22T00:50:25.707Z,18.75
2019-05-22T00:52:56.237Z,18.12
2019-05-22T00:55:27.983Z,20.08
2019-05-22T00:57:58.802Z,21.02
2019-05-22T01:00:34.815Z,17.25
2019-05-22T01:03:03.585Z,16.90
2019-05-22T01:05:36.947Z,19.87
2019-05-22T01:08:06.753Z,20.72
2019-05-22T01:10:38.436Z,18.48
2019-05-22T01:13:07.961Z,19.95
2019-05-22T01:15:37.468Z,16.65
2019-05-22T01:18:10.364Z,19.55
2019-05-22T01:20:41.715Z,14.78
2019-05-22T01:23:13.529Z,17.50
2019-05-22T01:25:43.567Z,17.02
2019-05-22T01:28:14.405Z,16.40
2019-05-22T01:31:05.220Z,15.10
2019-05-22T01:33:36.163Z,17.10
2019-05-22T01:36:07.502Z,17.35
2019-05-22T01:38:38.929Z,19.25
2019-05-22T01:41:19.284Z,15.60
2019-05-22T01:43:50.838Z,14.75
2019-05-22T01:46:21.542Z,16.20
2019-05-22T01:48:54.216Z,13.50
2019-05-22T01:51:23.672Z,18.05
2019-05-22T01:53:56.333Z,13.50
2019-05-22T01:56:27.574Z,16.32
2019-05-22T01:58:58.529Z,14.70
2019-05-22T02:01:28.125Z,14.85
2019-05-22T02:03:59.423Z,15.10
2019-05-22T02:06:29.353Z,17.30
2019-05-22T02:09:05.718Z,16.32
2019-05-22T02:11:36.279Z,15.28
2019-05-22T02:14:13.353Z,19.98
2019-05-22T02:16:56.745Z,17.02
2019-05-22T02:19:21.094Z,17.25
2019-05-22T02:21:52.220Z,14.70
2019-05-22T02:24:23.342Z,15.30
2019-05-22T02:26:53.281Z,18.50
2019-05-22T02:29:24.010Z,33.83
2019-05-22T02:31:55.797Z,18.50
2019-05-22T02:34:26.611Z,15.85
2019-05-22T02:36:57.998Z,20.00
2019-05-22T02:39:31.389Z,11.22
2019-05-22T02:42:08.698Z,15.60
2019-05-22T02:44:42.971Z,13.32
2019-05-22T02:47:19.784Z,15.83
2019-05-22T02:49:46.646Z,14.68
2019-05-22T02:52:17.022Z,17.50
2019-05-22T02:54:47.553Z,11.78
2019-05-22T02:57:16.997Z,13.75
2019-05-22T02:59:47.210Z,15.25
2019-05-22T03:02:17.099Z,9.85
2019-05-22T03:05:03.971Z,16.90
2019-05-22T03:07:34.816Z,14.58
2019-05-22T03:10:06.373Z,17.70
2019-05-22T03:12:36.586Z,9.03
2019-05-22T03:15:11.505Z,12.28
2019-05-22T03:17:43.369Z,12.95
2019-05-22T03:20:19.134Z,13.45
2019-05-22T03:22:57.555Z,11.35
2019-05-22T03:25:28.349Z,9.63
2019-05-22T03:27:58.003Z,17.50
2019-05-22T03:30:33.963Z,12.70
2019-05-22T03:33:08.310Z,13.98
2019-05-22T03:35:41.173Z,12.23
2019-05-22T03:38:10.930Z,10.93
2019-05-22T03:40:41.232Z,8.58
2019-05-22T03:43:24.144Z,19.12
2019-05-22T03:45:56.630Z,12.85
2019-05-22T03:48:27.863Z,9.68
2019-05-22T03:51:09.651Z,13.45
2019-05-22T03:53:40.334Z,11.08
2019-05-22T03:56:10.584Z,9.75
2019-05-22T03:58:41.751Z,10.85
2019-05-22T04:01:15.757Z,15.50
2019-05-22T04:03:45.982Z,16.15
2019-05-22T04:06:20.168Z,11.97
2019-05-22T04:08:50.199Z,13.70
2019-05-22T04:11:19.245Z,18.17
2019-05-22T04:13:49.346Z,14.83
2019-05-22T04:16:23.388Z,17.48
2019-05-22T04:18:53.768Z,14.20
2019-05-22T04:21:23.892Z,19.20
2019-05-22T04:23:56.062Z,10.95
2019-05-22T04:26:26.857Z,13.55
2019-05-22T04:28:56.217Z,11.40
2019-05-22T04:31:44.961Z,11.15
2019-05-22T04:34:14.508Z,12.70
2019-05-22T04:36:44.279Z,21.30
2019-05-22T04:39:22.453Z,13.28
2019-05-22T04:41:57.417Z,12.47
2019-05-22T04:44:26.868Z,20.20
2019-05-22T04:46:56.809Z,15.10
2019-05-22T04:49:26.332Z,16.52
2019-05-22T04:51:56.041Z,16.82
2019-05-22T04:54:25.662Z,21.17
2019-05-22T04:56:55.867Z,34.40
2019-05-22T04:59:25.701Z,16.40
2019-05-22T05:01:55.349Z,22.07
2019-05-22T05:04:26.166Z,24.43
2019-05-22T05:06:56.422Z,20.85
2019-05-22T05:09:26.747Z,16.10
2019-05-22T05:12:00.187Z,17.73
2019-05-22T05:14:29.444Z,15.60
2019-05-22T05:16:59.043Z,15.80
2019-05-22T05:19:28.663Z,14.93
2019-05-22T05:21:57.970Z,13.90
2019-05-22T05:24:28.213Z,19.48
2019-05-22T05:26:58.593Z,11.30
2019-05-22T05:29:31.442Z,13.10
2019-05-22T05:32:01.564Z,16.00
2019-05-22T05:34:45.401Z,18.80
2019-05-22T05:37:15.884Z,12.53
2019-05-22T05:39:48.402Z,10.15
2019-05-22T05:42:20.137Z,15.38
2019-05-22T05:44:49.253Z,12.78
2019-05-22T05:47:23.211Z,12.15
2019-05-22T05:49:56.240Z,17.45
2019-05-22T05:52:42.390Z,12.73
2019-05-22T05:55:19.646Z,14.63
2019-05-22T05:57:57.848Z,13.95
2019-05-22T06:00:44.563Z,13.25
2019-05-22T06:03:32.075Z,15.53
2019-05-22T06:06:13.455Z,9.83
2019-05-22T06:08:47.941Z,16.10
2019-05-22T06:11:31.037Z,17.70
2019-05-22T06:14:01.097Z,16.73
2019-05-22T06:16:51.432Z,15.70
2019-05-22T06:19:24.097Z,10.95
2019-05-22T06:21:54.834Z,14.23
2019-05-22T06:24:34.156Z,15.30
2019-05-22T06:27:17.179Z,15.25
2019-05-22T06:30:11.789Z,13.23
2019-05-22T06:33:04.226Z,13.83
2019-05-22T06:35:36.340Z,14.10
2019-05-22T06:38:23.498Z,14.55
2019-05-22T06:40:55.363Z,18.10
2019-05-22T06:43:30.472Z,15.53
2019-05-22T06:45:59.716Z,11.97
2019-05-22T06:48:29.001Z,16.80
2019-05-22T06:50:59.622Z,14.80
2019-05-22T06:53:32.606Z,12.33
2019-05-22T06:56:01.701Z,16.60
2019-05-22T06:58:31.412Z,15.65
2019-05-22T07:01:00.649Z,13.20
2019-05-22T07:03:30.419Z,16.40
2019-05-22T07:05:59.618Z,18.85
2019-05-22T07:08:34.912Z,21.35
2019-05-22T07:11:04.862Z,18.77
2019-05-22T07:13:37.187Z,14.18
2019-05-22T07:16:08.697Z,19.12
2019-05-22T07:18:42.817Z,15.05
2019-05-22T07:21:15.718Z,14.93
2019-05-22T07:23:46.222Z,15.55
2019-05-22T07:26:15.928Z,21.80
2019-05-22T07:28:50.719Z,13.93
2019-05-22T07:31:20.789Z,10.53
2019-05-22T07:33:53.949Z,14.85
2019-05-22T07:36:24.375Z,13.25
2019-05-22T07:38:53.595Z,9.68
2019-05-22T07:41:26.032Z,13.90
2019-05-22T07:43:58.510Z,12.47
2019-05-22T07:46:31.223Z,10.03
2019-05-22T07:49:00.825Z,10.53
2019-05-22T07:51:48.464Z,9.33
2019-05-22T07:54:07.243Z,11.97
2019-05-22T07:56:38.411Z,9.95
2019-05-22T07:59:11.544Z,16.45
2019-05-22T08:01:41.246Z,7.87
2019-05-22T08:04:10.861Z,11.70
2019-05-22T08:06:43.373Z,11.38
2019-05-22T08:09:19.195Z,7.65
2019-05-22T08:11:48.711Z,9.43
2019-05-22T08:14:22.945Z,8.88
2019-05-22T08:16:52.429Z,9.30
2019-05-22T08:19:22.117Z,9.83
2019-05-22T08:22:06.264Z,10.63
2019-05-22T08:24:23.582Z,15.15
2019-05-22T08:26:55.211Z,13.22
2019-05-22T08:29:24.270Z,11.22
2019-05-22T08:31:53.839Z,14.33
2019-05-22T08:34:24.482Z,9.00
2019-05-22T08:36:54.295Z,18.70
2019-05-22T08:39:24.425Z,8.13
2019-05-22T08:41:54.285Z,7.60
2019-05-22T08:44:29.562Z,7.70
2019-05-22T08:46:59.087Z,7.28
2019-05-22T08:49:28.664Z,9.75
2019-05-22T08:52:14.889Z,10.88
2019-05-22T08:54:46.906Z,8.65
2019-05-22T08:57:18.067Z,11.55
2019-05-22T08:59:48.799Z,14.13
2019-05-22T09:05:09.618Z,10.63
2019-05-22T09:10:13.652Z,11.10
2019-05-22T09:12:43.285Z,9.93
2019-05-22T09:15:21.489Z,13.70
2019-05-22T09:17:50.564Z,5.90
2019-05-22T09:20:22.780Z,10.68
2019-05-22T09:22:54.278Z,10.68
2019-05-22T09:25:26.481Z,12.70
2019-05-22T09:27:55.550Z,16.42
2019-05-22T09:30:25.193Z,8.28
2019-05-22T09:32:58.378Z,8.50
2019-05-22T09:35:27.438Z,6.37
2019-05-22T09:37:57.361Z,6.15
2019-05-22T09:40:26.747Z,11.25
2019-05-22T09:42:55.865Z,10.70
2019-05-22T09:45:26.183Z,13.45
2019-05-22T09:47:58.091Z,5.58
2019-05-22T09:50:29.893Z,11.57
2019-05-22T09:52:59.715Z,8.98
2019-05-22T09:55:29.049Z,5.65
2019-05-22T09:57:58.273Z,9.38
2019-05-22T10:00:28.725Z,9.78
2019-05-22T10:03:00.588Z,10.95
2019-05-22T10:05:31.438Z,14.05
2019-05-22T10:08:02.216Z,15.80
2019-05-22T10:10:32.384Z,10.48
2019-05-22T10:13:05.990Z,14.80
2019-05-22T10:15:37.868Z,13.55
2019-05-22T10:18:08.781Z,10.35
2019-05-22T10:20:39.940Z,10.45
2019-05-22T10:23:15.478Z,11.48
2019-05-22T10:25:44.555Z,7.87
2019-05-22T10:28:14.081Z,11.05
2019-05-22T10:30:43.288Z,8.93
2019-05-22T10:33:12.662Z,10.72
2019-05-22T10:35:42.430Z,10.75
2019-05-22T10:38:11.879Z,13.10
2019-05-22T10:40:47.751Z,8.63
2019-05-22T10:43:20.920Z,10.93
2019-05-22T10:45:50.216Z,11.05
2019-05-22T10:48:23.108Z,10.00
2019-05-22T10:50:52.200Z,8.03
2019-05-22T10:53:33.065Z,9.65
2019-05-22T10:55:57.526Z,8.08
2019-05-22T10:58:31.668Z,7.28
2019-05-22T11:01:00.777Z,6.78
2019-05-22T11:03:30.121Z,11.43
2019-05-22T11:06:07.072Z,12.07
2019-05-22T11:08:34.313Z,11.48
2019-05-22T11:11:02.528Z,8.73
2019-05-22T11:13:34.164Z,8.40
2019-05-22T11:16:03.841Z,8.88
2019-05-22T11:18:38.850Z,8.98
2019-05-22T11:21:09.811Z,10.98
2019-05-22T11:23:51.462Z,12.37
2019-05-22T11:26:13.834Z,12.88
2019-05-22T11:28:43.566Z,19.77
2019-05-22T11:31:19.495Z,10.08
2019-05-22T11:33:48.621Z,7.97
2019-05-22T11:36:21.747Z,10.60
2019-05-22T11:38:51.108Z,8.03
2019-05-22T11:41:27.103Z,10.18
2019-05-22T11:46:22.051Z,9.05
2019-05-22T11:48:51.866Z,6.70
2019-05-22T11:51:22.099Z,16.37
2019-05-22T11:54:07.974Z,8.50
2019-05-22T11:56:22.833Z,12.40
2019-05-22T11:58:52.030Z,11.33
2019-05-22T12:01:29.462Z,9.93
2019-05-22T12:04:02.843Z,6.40
2019-05-22T12:09:07.475Z,7.03
2019-05-22T12:11:42.926Z,8.73
2019-05-22T12:14:11.821Z,11.15
2019-05-22T12:16:44.354Z,6.03
2019-05-22T12:19:17.617Z,6.83
2019-05-22T12:24:26.961Z,10.25
2019-05-22T12:26:50.543Z,15.58
2019-05-22T12:29:26.025Z,18.67
2019-05-22T12:31:59.268Z,14.68
2019-05-22T12:34:31.075Z,17.62
2019-05-22T12:37:01.321Z,16.97
2019-05-22T12:39:31.621Z,15.25
2019-05-22T12:42:01.590Z,19.52
2019-05-22T12:44:34.066Z,13.98
2019-05-22T12:47:03.815Z,20.95
2019-05-22T12:49:33.116Z,18.80
2019-05-22T12:52:06.279Z,14.20
2019-05-22T12:54:45.858Z,18.02
2019-05-22T12:57:07.163Z,16.17
2019-05-22T12:59:37.086Z,18.62
2019-05-22T13:02:09.722Z,17.50
2019-05-22T13:04:39.239Z,17.32
2019-05-22T13:07:08.869Z,20.40
2019-05-22T13:09:38.697Z,15.65
2019-05-22T13:12:12.798Z,16.65
2019-05-22T13:14:42.634Z,14.23
2019-05-22T13:17:14.069Z,14.78
2019-05-22T13:19:51.872Z,13.13
2019-05-22T13:22:24.838Z,16.10
2019-05-22T13:24:57.514Z,20.20
2019-05-22T13:27:29.656Z,14.50
2019-05-22T13:30:11.576Z,10.80
2019-05-22T13:32:46.516Z,13.88
2019-05-22T13:35:21.686Z,16.75
2019-05-22T13:37:50.847Z,17.60
2019-05-22T13:40:27.740Z,12.78
2019-05-22T13:42:55.180Z,10.40
2019-05-22T13:45:29.159Z,10.93
2019-05-22T13:48:01.212Z,12.65
2019-05-22T13:50:31.788Z,11.15
2019-05-22T13:53:03.251Z,12.05
2019-05-22T13:55:33.573Z,15.23
2019-05-22T13:58:04.201Z,13.30
2019-05-22T14:00:33.491Z,9.45
2019-05-22T14:03:05.958Z,11.15
2019-05-22T14:05:36.899Z,9.30
2019-05-22T14:08:11.968Z,13.10
2019-05-22T14:10:41.577Z,9.10
2019-05-22T14:13:11.794Z,13.95
2019-05-22T14:15:54.926Z,18.20
2019-05-22T14:18:21.282Z,11.33
2019-05-22T14:20:52.403Z,15.15
2019-05-22T14:23:29.517Z,14.25
2019-05-22T14:25:58.839Z,13.83
2019-05-22T14:28:32.401Z,12.68
2019-05-22T14:31:01.541Z,13.58
2019-05-22T14:33:33.087Z,11.80
2019-05-22T14:36:05.972Z,11.93
2019-05-22T14:38:37.836Z,12.40
2019-05-22T14:41:10.434Z,11.18
2019-05-22T14:43:39.614Z,20.13
2019-05-22T14:46:08.932Z,16.77
2019-05-22T14:48:44.221Z,27.07
2019-05-22T14:51:16.534Z,20.95
2019-05-22T14:53:46.278Z,22.20
2019-05-22T14:56:17.906Z,21.90
2019-05-22T14:58:47.418Z,26.48
2019-05-22T15:01:20.190Z,28.52
2019-05-22T15:03:49.683Z,24.57
2019-05-22T15:06:22.283Z,24.63
2019-05-22T15:08:59.254Z,18.63
2019-05-22T15:11:35.718Z,19.20
2019-05-22T15:14:19.291Z,23.15
2019-05-22T15:16:44.846Z,19.42
2019-05-22T15:19:18.933Z,24.95
2019-05-22T15:21:49.082Z,24.82
2019-05-22T15:24:20.433Z,26.00
2019-05-22T15:26:50.041Z,21.87
2019-05-22T15:29:19.737Z,30.40
2019-05-22T15:31:55.814Z,18.05
2019-05-22T15:34:27.754Z,11.22
2019-05-22T15:36:58.037Z,11.45
2019-05-22T15:39:34.396Z,9.55
2019-05-22T15:42:09.796Z,11.22
2019-05-22T15:44:41.807Z,8.35
2019-05-22T15:47:14.560Z,10.03
2019-05-22T15:49:49.771Z,12.98
2019-05-22T15:52:21.452Z,9.25
2019-05-22T15:54:51.702Z,9.40
2019-05-22T15:57:23.347Z,9.00
2019-05-22T15:59:54.267Z,10.82
2019-05-22T16:02:25.837Z,6.92
2019-05-22T16:04:57.934Z,8.33
2019-05-22T16:07:29.613Z,8.30
2019-05-22T16:09:59.222Z,8.28
2019-05-22T16:12:29.144Z,7.40
2019-05-22T16:15:01.402Z,5.78
2019-05-22T16:17:35.421Z,8.05
2019-05-22T16:20:06.259Z,5.42
2019-05-22T16:22:37.376Z,7.08
2019-05-22T16:25:13.559Z,10.63
2019-05-22T16:27:45.253Z,7.17
2019-05-22T16:30:21.267Z,9.40
2019-05-22T16:32:54.866Z,10.82
2019-05-22T16:35:24.685Z,8.25
2019-05-22T16:37:54.696Z,9.30
2019-05-22T16:40:24.506Z,9.50
2019-05-22T16:42:56.575Z,10.20
2019-05-22T16:45:38.827Z,10.70
2019-05-22T16:48:27.274Z,11.85
2019-05-22T16:50:43.318Z,8.08
2019-05-22T16:53:13.953Z,6.90
2019-05-22T16:55:47.826Z,9.33
2019-05-22T16:58:19.616Z,10.48
2019-05-22T17:00:51.903Z,12.10
2019-05-22T17:03:25.122Z,12.13
2019-05-22T17:05:54.867Z,8.43
2019-05-22T17:08:24.291Z,8.83
2019-05-22T17:10:57.512Z,8.45
2019-05-22T17:13:33.552Z,6.28
2019-05-22T17:16:06.518Z,8.45
2019-05-22T17:18:47.652Z,6.55
2019-05-22T17:21:14.169Z,12.33
2019-05-22T17:23:45.524Z,9.65
2019-05-22T17:26:15.294Z,11.43
2019-05-22T17:28:50.159Z,12.70
2019-05-22T17:31:19.427Z,10.58
2019-05-22T17:33:48.716Z,9.40
2019-05-22T17:36:22.708Z,11.73
2019-05-22T17:39:07.438Z,8.23
2019-05-22T17:41:40.003Z,9.65
2019-05-22T17:44:12.650Z,12.13
2019-05-22T17:46:45.800Z,7.45
2019-05-22T17:49:27.409Z,8.38
2019-05-22T17:51:56.821Z,10.03
2019-05-22T17:54:26.233Z,6.75
2019-05-22T17:56:56.044Z,7.17
2019-05-22T17:59:25.438Z,9.35
2019-05-22T18:01:55.560Z,9.80
2019-05-22T18:04:24.964Z,8.35
2019-05-22T18:06:56.614Z,13.28
2019-05-22T18:09:28.581Z,12.07
2019-05-22T18:11:57.773Z,12.28
2019-05-22T18:14:28.506Z,7.42
2019-05-22T18:16:58.934Z,11.73
2019-05-22T18:19:29.221Z,17.98
2019-05-22T18:21:59.494Z,11.55
2019-05-22T18:24:33.898Z,10.72
2019-05-22T18:27:03.199Z,11.75
2019-05-22T18:29:36.190Z,9.33
2019-05-22T18:32:09.196Z,7.92
2019-05-22T18:34:37.958Z,12.28
2019-05-22T18:37:10.127Z,10.55
2019-05-22T18:39:39.149Z,10.40
2019-05-22T18:42:14.889Z,8.33
2019-05-22T18:44:44.194Z,12.78
2019-05-22T18:47:18.074Z,7.60
2019-05-22T18:49:49.586Z,9.40
2019-05-22T18:52:40.561Z,11.95
2019-05-22T18:55:06.092Z,11.40
2019-05-22T18:57:49.681Z,16.95
2019-05-22T19:00:24.077Z,15.43
2019-05-22T19:02:57.271Z,23.02
2019-05-22T19:05:27.452Z,12.20
2019-05-22T19:07:59.100Z,18.17
2019-05-22T19:10:27.141Z,16.42
2019-05-22T19:12:56.437Z,23.45
2019-05-22T19:15:30.249Z,17.10
2019-05-22T19:18:00.193Z,21.60
2019-05-22T19:20:29.252Z,33.20
2019-05-22T19:23:02.161Z,22.75
2019-05-22T19:25:31.377Z,26.68
2019-05-22T19:28:00.044Z,20.08
2019-05-22T19:30:29.419Z,29.02
2019-05-22T19:32:58.513Z,20.72
2019-05-22T19:35:28.735Z,21.97
2019-05-22T19:38:05.178Z,25.08
2019-05-22T19:40:35.125Z,20.90
2019-05-22T19:43:09.062Z,18.98
2019-05-22T19:45:44.277Z,16.15
2019-05-22T19:48:13.371Z,17.70
2019-05-22T19:50:42.864Z,24.63
2019-05-22T19:53:18.574Z,22.70
2019-05-22T19:55:49.943Z,20.55
2019-05-22T19:58:22.019Z,20.68
2019-05-22T20:00:51.827Z,23.87
2019-05-22T20:03:25.931Z,26.23
2019-05-22T20:05:58.504Z,20.35
2019-05-22T20:08:27.233Z,27.50
2019-05-22T20:10:56.924Z,22.95
2019-05-22T20:13:29.316Z,20.68
2019-05-22T20:16:02.989Z,26.87
2019-05-22T20:18:37.325Z,19.52
2019-05-22T20:21:09.649Z,23.30
2019-05-22T20:23:44.324Z,23.05
2019-05-22T20:26:17.308Z,27.93
2019-05-22T20:28:47.660Z,28.42
2019-05-22T20:31:17.229Z,31.77
2019-05-22T20:33:46.773Z,30.00
2019-05-22T20:36:16.751Z,25.62
2019-05-22T20:38:47.170Z,25.62
2019-05-22T20:41:16.489Z,26.93
2019-05-22T20:43:52.271Z,22.75
2019-05-22T20:46:22.193Z,28.02
2019-05-22T20:48:51.461Z,27.13
2019-05-22T20:51:20.333Z,21.23
2019-05-22T20:53:54.134Z,22.73
2019-05-22T20:56:21.851Z,23.40
2019-05-22T20:58:57.243Z,27.58
2019-05-22T21:01:29.137Z,25.23
2019-05-22T21:04:01.589Z,24.50
2019-05-22T21:06:33.491Z,26.00
2019-05-22T21:09:05.418Z,21.40
2019-05-22T21:11:36.861Z,23.83
2019-05-22T21:14:13.857Z,26.60
2019-05-22T21:16:43.977Z,26.77
2019-05-22T21:19:13.988Z,21.77
2019-05-22T21:21:44.042Z,26.20
2019-05-22T21:24:14.356Z,23.00
2019-05-22T21:26:44.309Z,31.77
2019-05-22T21:29:14.152Z,19.32
2019-05-22T21:31:47.672Z,22.07
2019-05-22T21:34:15.783Z,27.85
2019-05-22T21:36:45.101Z,23.45
2019-05-22T21:39:15.147Z,19.25
2019-05-22T21:41:45.052Z,23.87
2019-05-22T21:44:16.805Z,24.60
2019-05-22T21:46:51.180Z,24.92
2019-05-22T21:49:23.501Z,24.90
2019-05-22T21:52:00.867Z,27.07
2019-05-22T21:54:43.613Z,27.07
2019-05-22T21:57:15.578Z,32.73
2019-05-22T21:59:45.766Z,29.32
2019-05-22T22:02:19.366Z,32.90
2019-05-22T22:07:18.592Z,30.72
2019-05-22T22:09:49.420Z,34.40
2019-05-22T22:12:22.305Z,33.23
2019-05-22T22:14:55.185Z,31.55
2019-05-22T22:17:31.123Z,32.55
2019-05-22T22:20:00.237Z,35.78
2019-05-22T22:22:30.970Z,35.38
2019-05-22T22:25:05.592Z,36.63
2019-05-22T22:27:38.480Z,36.28
2019-05-22T22:30:18.620Z,33.02
2019-05-22T22:32:50.932Z,35.88
2019-05-22T22:35:21.059Z,36.23
2019-05-22T22:37:51.290Z,36.13
2019-05-22T22:40:27.445Z,35.78
2019-05-22T22:42:56.904Z,36.77
2019-05-22T22:45:30.303Z,35.85
2019-05-22T22:48:04.004Z,34.63
2019-05-22T22:50:33.104Z,35.20
2019-05-22T22:53:04.829Z,36.35
2019-05-22T22:55:34.676Z,35.90
2019-05-22T22:58:18.819Z,40.65
2019-05-22T23:00:49.665Z,38.17
2019-05-22T23:03:20.573Z,40.23
2019-05-22T23:05:49.792Z,40.98
2019-05-22T23:08:20.241Z,43.85
2019-05-22T23:10:52.685Z,36.03
2019-05-22T23:13:22.088Z,37.28
2019-05-22T23:15:51.753Z,36.50
2019-05-22T23:18:42.162Z,40.17
2019-05-22T23:21:09.666Z,36.15
2019-05-22T23:23:37.866Z,36.48
2019-05-22T23:26:08.154Z,41.58
2019-05-22T23:28:40.702Z,34.88
2019-05-22T23:31:10.125Z,36.93
2019-05-22T23:33:39.425Z,34.40
2019-05-22T23:36:09.107Z,35.03
2019-05-22T23:38:38.736Z,35.88
2019-05-22T23:41:09.528Z,35.95
2019-05-22T23:43:41.178Z,33.78
2019-05-22T23:46:13.805Z,32.78
2019-05-22T23:48:44.141Z,40.38
2019-05-22T23:51:13.234Z,34.00
2019-05-22T23:53:43.139Z,34.80
2019-05-22T23:56:12.706Z,37.28
2019-05-22T23:58:52.659Z,33.90
